createdAt,value
2023-03-10T00:00:43.244Z,98965.69
2023-03-10T00:03:09.607Z,98952.03
2023-03-10T00:05:36.427Z,98949.88
2023-03-10T00:08:02.810Z,98944.16
2023-03-10T00:10:29.177Z,98939.13
2023-03-10T00:12:55.524Z,98936.28
2023-03-10T00:15:21.913Z,98940.59
2023-03-10T00:17:50.070Z,98933.41
2023-03-10T00:20:16.455Z,98935.56
2023-03-10T00:22:42.900Z,98942.75
2023-03-10T00:25:09.627Z,98928.38
2023-03-10T00:27:35.993Z,98915.41
2023-03-10T00:30:02.358Z,98905.34
2023-03-10T00:32:28.723Z,98895.25
2023-03-10T00:34:55.114Z,98906.75
2023-03-10T00:37:21.460Z,98887.31
2023-03-10T00:39:51.349Z,98886.59
2023-03-10T00:42:17.669Z,98887.31
2023-03-10T00:44:44.000Z,98886.59
2023-03-10T00:47:10.335Z,98888.06
2023-03-10T00:49:36.714Z,98881.56
2023-03-10T00:52:03.036Z,98867.19
2023-03-10T00:54:29.373Z,98865.09
2023-03-10T00:56:55.800Z,98849.28
2023-03-10T00:59:22.136Z,98847.84
2023-03-10T01:01:48.523Z,98837.78
2023-03-10T01:04:15.462Z,98824.81
2023-03-10T01:06:42.293Z,98820.50
2023-03-10T01:09:08.635Z,98806.09
2023-03-10T01:11:35.014Z,98793.16
2023-03-10T01:14:02.113Z,98803.91
2023-03-10T01:16:28.486Z,98783.06
2023-03-10T01:18:55.456Z,98789.53
2023-03-10T01:21:25.781Z,98785.19
2023-03-10T01:23:52.099Z,98775.84
2023-03-10T01:26:18.881Z,98774.38
2023-03-10T01:28:46.501Z,98775.84
2023-03-10T01:31:13.066Z,98765.06
2023-03-10T01:33:42.820Z,98760.03
2023-03-10T01:36:13.190Z,98764.38
2023-03-10T01:38:39.613Z,98753.63
2023-03-10T01:41:05.957Z,98749.28
2023-03-10T01:43:32.998Z,98739.94
2023-03-10T01:46:02.294Z,98739.97
2023-03-10T01:48:32.722Z,98727.03
2023-03-10T01:50:59.056Z,98727.03
2023-03-10T01:53:25.670Z,98709.00
2023-03-10T01:55:52.984Z,98705.41
2023-03-10T01:58:19.793Z,98697.50
2023-03-10T02:00:46.155Z,98698.22
2023-03-10T02:03:15.134Z,98678.78
2023-03-10T02:05:51.887Z,98679.47
2023-03-10T02:08:18.234Z,98663.66
2023-03-10T02:10:44.687Z,98674.47
2023-03-10T02:13:11.024Z,98667.28
2023-03-10T02:15:37.344Z,98652.22
2023-03-10T02:18:03.718Z,98646.47
2023-03-10T02:20:38.269Z,98644.31
2023-03-10T02:23:04.600Z,98643.59
2023-03-10T02:25:34.009Z,98620.59
2023-03-10T02:28:01.347Z,98622.00
2023-03-10T02:30:29.604Z,98616.25
2023-03-10T02:32:57.228Z,98604.03
2023-03-10T02:35:23.930Z,98600.44
2023-03-10T02:37:55.572Z,98587.47
2023-03-10T02:40:21.987Z,98586.03
2023-03-10T02:42:48.696Z,98578.09
2023-03-10T02:45:15.279Z,98574.53
2023-03-10T02:47:41.602Z,98570.94
2023-03-10T02:50:08.469Z,98563.72
2023-03-10T02:52:36.614Z,98570.22
2023-03-10T02:55:03.193Z,98570.94
2023-03-10T02:57:29.523Z,98567.31
2023-03-10T02:59:55.918Z,98568.78
2023-03-10T03:02:22.239Z,98564.47
2023-03-10T03:04:48.701Z,98548.69
2023-03-10T03:07:15.076Z,98537.16
2023-03-10T03:09:41.444Z,98529.97
2023-03-10T03:12:07.977Z,98528.53
2023-03-10T03:14:34.304Z,98513.44
2023-03-10T03:17:02.340Z,98512.00
2023-03-10T03:19:29.899Z,98509.81
2023-03-10T03:21:57.116Z,98504.06
2023-03-10T03:24:24.317Z,98503.31
2023-03-10T03:26:50.683Z,98496.88
2023-03-10T03:29:20.997Z,98499.03
2023-03-10T03:31:47.454Z,98496.88
2023-03-10T03:34:20.581Z,98491.13
2023-03-10T03:36:48.162Z,98485.38
2023-03-10T03:39:19.434Z,98481.06
2023-03-10T03:41:53.139Z,98478.19
2023-03-10T03:44:20.065Z,98469.56
2023-03-10T03:46:47.289Z,98476.75
2023-03-10T03:49:13.689Z,98468.16
2023-03-10T03:51:40.065Z,98462.41
2023-03-10T03:54:06.448Z,98458.09
2023-03-10T03:56:35.133Z,98444.44
2023-03-10T03:59:02.148Z,98443.72
2023-03-10T04:01:28.543Z,98446.59
2023-03-10T04:03:57.194Z,98436.53
2023-03-10T04:06:23.749Z,98425.78
2023-03-10T04:08:50.626Z,98429.38
2023-03-10T04:11:17.758Z,98417.88
2023-03-10T04:13:46.303Z,98427.19
2023-03-10T04:16:13.468Z,98414.28
2023-03-10T04:18:40.744Z,98419.28
2023-03-10T04:21:10.018Z,98412.09
2023-03-10T04:23:36.603Z,98414.97
2023-03-10T04:26:06.616Z,98405.63
2023-03-10T04:28:33.199Z,98407.81
2023-03-10T04:30:59.597Z,98418.56
2023-03-10T04:33:29.833Z,98418.53
2023-03-10T04:35:56.238Z,98414.75
2023-03-10T04:38:23.686Z,98403.31
2023-03-10T04:40:54.592Z,98396.19
2023-03-10T04:43:22.052Z,98398.34
2023-03-10T04:45:48.535Z,98389.03
2023-03-10T04:48:15.306Z,98374.66
2023-03-10T04:50:41.661Z,98365.31
2023-03-10T04:53:08.280Z,98366.78
2023-03-10T04:55:34.640Z,98363.91
2023-03-10T04:58:03.064Z,98360.31
2023-03-10T05:00:29.525Z,98356.00
2023-03-10T05:02:55.916Z,98350.28
2023-03-10T05:05:22.406Z,98337.31
2023-03-10T05:07:48.946Z,98333.00
2023-03-10T05:10:15.547Z,98330.88
2023-03-10T05:12:42.388Z,98333.75
2023-03-10T05:15:09.603Z,98327.25
2023-03-10T05:17:35.992Z,98326.53
2023-03-10T05:20:04.861Z,98327.25
2023-03-10T05:22:31.405Z,98312.88
2023-03-10T05:24:57.811Z,98314.31
2023-03-10T05:27:24.577Z,98308.53
2023-03-10T05:29:50.950Z,98306.38
2023-03-10T05:32:23.776Z,98302.78
2023-03-10T05:34:50.178Z,98297.03
2023-03-10T05:37:16.569Z,98296.31
2023-03-10T05:39:43.891Z,98297.00
2023-03-10T05:42:15.051Z,98303.50
2023-03-10T05:44:42.288Z,98301.34
2023-03-10T05:47:09.291Z,98292.72
2023-03-10T05:49:37.438Z,98295.59
2023-03-10T05:52:05.682Z,98297.03
2023-03-10T05:54:32.252Z,98297.75
2023-03-10T05:56:58.811Z,98293.44
2023-03-10T05:59:27.172Z,98294.19
2023-03-10T06:01:54.361Z,98285.56
2023-03-10T06:04:20.764Z,98285.56
2023-03-10T06:06:47.145Z,98285.56
2023-03-10T06:09:13.464Z,98284.09
2023-03-10T06:11:39.825Z,98277.66
2023-03-10T06:14:06.170Z,98268.31
2023-03-10T06:16:32.579Z,98259.69
2023-03-10T06:18:58.994Z,98263.28
2023-03-10T06:21:26.132Z,98265.41
2023-03-10T06:23:52.510Z,98260.38
2023-03-10T06:26:18.864Z,98269.00
2023-03-10T06:28:45.606Z,98259.69
2023-03-10T06:31:13.110Z,98264.03
2023-03-10T06:33:39.427Z,98255.38
2023-03-10T06:36:06.103Z,98268.31
2023-03-10T06:38:32.489Z,98261.84
2023-03-10T06:40:58.866Z,98261.13
2023-03-10T06:43:25.218Z,98251.06
2023-03-10T06:45:51.608Z,98249.63
2023-03-10T06:48:18.038Z,98248.19
2023-03-10T06:50:50.524Z,98245.31
2023-03-10T06:53:17.717Z,98243.88
2023-03-10T06:55:44.063Z,98248.19
2023-03-10T06:58:10.439Z,98248.19
2023-03-10T07:00:36.776Z,98248.19
2023-03-10T07:03:03.101Z,98251.06
2023-03-10T07:05:29.488Z,98253.25
2023-03-10T07:07:55.820Z,98253.97
2023-03-10T07:10:22.824Z,98246.81
2023-03-10T07:12:54.825Z,98258.38
2023-03-10T07:15:22.212Z,98259.81
2023-03-10T07:17:48.519Z,98252.63
2023-03-10T07:20:14.857Z,98256.94
2023-03-10T07:22:41.193Z,98256.22
2023-03-10T07:25:07.651Z,98255.47
2023-03-10T07:27:33.982Z,98241.81
2023-03-10T07:30:00.310Z,98249.72
2023-03-10T07:32:26.727Z,98251.19
2023-03-10T07:34:53.088Z,98246.84
2023-03-10T07:37:19.409Z,98251.16
2023-03-10T07:39:45.739Z,98252.63
2023-03-10T07:42:12.071Z,98246.84
2023-03-10T07:44:38.405Z,98254.75
2023-03-10T07:47:04.715Z,98246.84
2023-03-10T07:49:31.036Z,98249.72
2023-03-10T07:51:57.374Z,98240.38
2023-03-10T07:54:23.705Z,98243.97
2023-03-10T07:56:51.169Z,98251.16
2023-03-10T07:59:17.668Z,98236.78
2023-03-10T08:01:44.000Z,98252.59
2023-03-10T08:04:12.455Z,98241.09
2023-03-10T08:06:38.942Z,98236.75
2023-03-10T08:09:05.305Z,98231.00
2023-03-10T08:11:31.626Z,98241.81
2023-03-10T08:13:57.998Z,98228.84
2023-03-10T08:16:24.691Z,98238.19
2023-03-10T08:18:52.061Z,98239.63
2023-03-10T08:21:18.401Z,98236.03
2023-03-10T08:23:44.799Z,98235.31
2023-03-10T08:26:12.692Z,98233.88
2023-03-10T08:28:39.174Z,98238.22
2023-03-10T08:31:12.240Z,98235.34
2023-03-10T08:33:38.813Z,98241.78
2023-03-10T08:36:06.127Z,98236.78
2023-03-10T08:38:32.476Z,98237.47
2023-03-10T08:40:58.859Z,98253.31
2023-03-10T08:43:25.225Z,98254.03
2023-03-10T08:45:51.560Z,98251.16
2023-03-10T08:48:17.912Z,98262.69
2023-03-10T08:50:44.385Z,98269.88
2023-03-10T08:53:12.488Z,98262.69
2023-03-10T08:55:39.146Z,98277.09
2023-03-10T08:58:05.483Z,98265.53
2023-03-10T09:00:31.814Z,98267.72
2023-03-10T09:02:58.164Z,98269.88
2023-03-10T09:05:24.519Z,98270.59
2023-03-10T09:07:50.849Z,98261.25
2023-03-10T09:10:17.205Z,98274.19
2023-03-10T09:12:43.590Z,98267.00
2023-03-10T09:15:10.053Z,98273.50
2023-03-10T09:17:37.699Z,98276.34
2023-03-10T09:20:09.232Z,98285.00
2023-03-10T09:22:35.565Z,98287.16
2023-03-10T09:25:01.894Z,98279.97
2023-03-10T09:27:28.239Z,98281.41
2023-03-10T09:29:54.577Z,98297.22
2023-03-10T09:32:20.980Z,98284.28
2023-03-10T09:34:47.417Z,98284.28
2023-03-10T09:37:13.800Z,98298.69
2023-03-10T09:39:40.152Z,98306.59
2023-03-10T09:42:06.451Z,98308.03
2023-03-10T09:44:38.456Z,98308.03
2023-03-10T09:47:19.618Z,98325.31
2023-03-10T09:49:58.079Z,98313.06
2023-03-10T09:52:27.829Z,98323.88
2023-03-10T09:55:13.143Z,98321.72
2023-03-10T09:57:39.566Z,98323.88
2023-03-10T10:00:08.689Z,98331.81
2023-03-10T10:02:41.544Z,98334.69
2023-03-10T10:05:12.369Z,98339.00
2023-03-10T10:07:42.779Z,98340.44
2023-03-10T10:10:16.536Z,98343.31
2023-03-10T10:12:44.429Z,98330.38
2023-03-10T10:15:15.601Z,98326.75
2023-03-10T10:17:55.144Z,98336.13
2023-03-10T10:20:28.052Z,98343.34
2023-03-10T10:22:54.378Z,98341.16
2023-03-10T10:25:21.398Z,98344.06
2023-03-10T10:27:47.792Z,98354.84
2023-03-10T10:30:30.960Z,98344.78
2023-03-10T10:33:00.920Z,98350.53
2023-03-10T10:35:28.393Z,98353.41
2023-03-10T10:38:01.508Z,98356.28
2023-03-10T10:40:28.627Z,98354.09
2023-03-10T10:42:55.344Z,98352.69
2023-03-10T10:45:25.746Z,98363.50
2023-03-10T10:47:52.075Z,98356.31
2023-03-10T10:50:19.318Z,98362.06
2023-03-10T10:52:48.798Z,98364.22
2023-03-10T10:55:34.355Z,98366.38
2023-03-10T10:58:01.940Z,98363.50
2023-03-10T11:00:29.656Z,98369.25
2023-03-10T11:02:56.092Z,98368.53
2023-03-10T11:05:23.936Z,98379.34
2023-03-10T11:07:50.700Z,98363.50
2023-03-10T11:10:18.205Z,98360.63
2023-03-10T11:12:51.823Z,98359.91
2023-03-10T11:15:23.181Z,98354.13
2023-03-10T11:18:00.856Z,98356.31
2023-03-10T11:20:28.660Z,98364.94
2023-03-10T11:22:57.873Z,98364.94
2023-03-10T11:25:27.155Z,98380.06
2023-03-10T11:28:02.756Z,98377.91
2023-03-10T11:30:35.665Z,98375.75
2023-03-10T11:33:14.831Z,98375.03
2023-03-10T11:35:48.034Z,98371.44
2023-03-10T11:38:14.325Z,98370.72
2023-03-10T11:40:49.481Z,98369.25
2023-03-10T11:43:24.531Z,98368.53
2023-03-10T11:45:54.535Z,98370.00
2023-03-10T11:48:24.549Z,98363.50
2023-03-10T11:50:52.809Z,98377.91
2023-03-10T11:53:27.107Z,98367.81
2023-03-10T11:55:53.660Z,98372.84
2023-03-10T11:58:22.490Z,98369.97
2023-03-10T12:00:48.860Z,98369.25
2023-03-10T12:03:15.205Z,98368.56
2023-03-10T12:05:49.151Z,98367.09
2023-03-10T12:08:15.498Z,98370.69
2023-03-10T12:10:41.818Z,98367.09
2023-03-10T12:13:14.008Z,98375.75
2023-03-10T12:15:40.539Z,98372.84
2023-03-10T12:18:07.280Z,98372.13
2023-03-10T12:20:33.835Z,98376.47
2023-03-10T12:23:01.048Z,98379.34
2023-03-10T12:25:30.420Z,98385.09
2023-03-10T12:28:15.384Z,98380.06
2023-03-10T12:30:57.784Z,98382.25
2023-03-10T12:33:45.394Z,98379.34
2023-03-10T12:36:31.908Z,98371.44
2023-03-10T12:39:01.563Z,98371.44
2023-03-10T12:41:27.902Z,98370.69
2023-03-10T12:44:06.407Z,98359.91
2023-03-10T12:46:40.431Z,98367.81
2023-03-10T12:49:23.856Z,98362.06
2023-03-10T12:51:51.862Z,98366.38
2023-03-10T12:54:27.372Z,98375.03
2023-03-10T12:57:02.824Z,98369.28
2023-03-10T12:59:34.550Z,98367.22
2023-03-10T13:02:00.989Z,98358.44
2023-03-10T13:04:27.372Z,98359.28
2023-03-10T13:06:56.758Z,98361.69
2023-03-10T13:09:27.077Z,98361.19
2023-03-10T13:11:54.658Z,98374.25
2023-03-10T13:14:21.697Z,98363.47
2023-03-10T13:16:54.602Z,98357.03
2023-03-10T13:19:21.469Z,98362.78
2023-03-10T13:21:47.810Z,98356.31
2023-03-10T13:24:27.385Z,98356.25
2023-03-10T13:27:17.191Z,98360.59
2023-03-10T13:29:56.528Z,98359.19
2023-03-10T13:32:23.023Z,98367.81
2023-03-10T13:34:49.363Z,98356.28
2023-03-10T13:37:15.776Z,98347.66
2023-03-10T13:39:42.128Z,98351.25
2023-03-10T13:42:17.043Z,98353.41
2023-03-10T13:44:44.493Z,98356.28
2023-03-10T13:47:20.843Z,98364.19
2023-03-10T13:49:54.294Z,98365.66
2023-03-10T13:52:21.617Z,98366.38
2023-03-10T13:54:47.985Z,98371.41
2023-03-10T13:57:28.572Z,98377.91
2023-03-10T13:59:56.055Z,98369.25
2023-03-10T14:02:27.757Z,98369.25
2023-03-10T14:04:54.085Z,98372.88
2023-03-10T14:07:23.844Z,98369.28
2023-03-10T14:10:05.697Z,98367.81
2023-03-10T14:12:45.059Z,98352.69
2023-03-10T14:15:14.013Z,98357.72
2023-03-10T14:17:43.127Z,98363.47
2023-03-10T14:20:10.245Z,98347.63
2023-03-10T14:22:37.717Z,98341.13
2023-03-10T14:25:08.291Z,98350.50
2023-03-10T14:27:34.848Z,98347.50
2023-03-10T14:30:01.440Z,98346.03
2023-03-10T14:32:27.848Z,98344.66
2023-03-10T14:34:54.188Z,98341.81
2023-03-10T14:37:20.521Z,98346.19
2023-03-10T14:39:46.853Z,98346.19
2023-03-10T14:42:23.167Z,98343.31
2023-03-10T14:44:49.736Z,98337.53
2023-03-10T14:47:16.544Z,98334.66
2023-03-10T14:49:43.062Z,98333.25
2023-03-10T14:52:11.582Z,98343.31
2023-03-10T14:54:37.898Z,98350.53
2023-03-10T14:57:04.231Z,98344.75
2023-03-10T14:59:30.620Z,98342.56
2023-03-10T15:01:57.066Z,98341.03
2023-03-10T15:04:23.462Z,98337.44
2023-03-10T15:06:49.890Z,98341.81
2023-03-10T15:09:16.788Z,98341.13
2023-03-10T15:11:43.141Z,98341.84
2023-03-10T15:14:13.208Z,98341.88
2023-03-10T15:16:39.523Z,98337.56
2023-03-10T15:19:05.854Z,98336.13
2023-03-10T15:21:32.179Z,98351.97
2023-03-10T15:23:58.510Z,98357.75
2023-03-10T15:26:24.822Z,98351.97
2023-03-10T15:28:51.254Z,98353.38
2023-03-10T15:31:17.711Z,98356.97
2023-03-10T15:33:44.092Z,98357.69
2023-03-10T15:36:10.782Z,98364.94
2023-03-10T15:38:37.155Z,98373.56
2023-03-10T15:41:05.609Z,98364.91
2023-03-10T15:43:31.956Z,98363.44
2023-03-10T15:45:58.281Z,98356.22
2023-03-10T15:48:24.660Z,98354.75
2023-03-10T15:50:51.056Z,98354.03
2023-03-10T15:53:17.390Z,98356.22
2023-03-10T15:55:43.801Z,98350.44
2023-03-10T15:58:10.662Z,98345.44
2023-03-10T16:00:36.986Z,98347.56
2023-03-10T16:03:03.311Z,98361.97
2023-03-10T16:05:29.633Z,98358.34
2023-03-10T16:07:55.961Z,98365.56
2023-03-10T16:10:22.300Z,98369.19
2023-03-10T16:12:48.651Z,98370.53
2023-03-10T16:15:17.919Z,98371.88
2023-03-10T16:17:44.717Z,98370.56
2023-03-10T16:20:12.635Z,98362.69
2023-03-10T16:22:40.635Z,98359.09
2023-03-10T16:25:08.855Z,98362.00
2023-03-10T16:27:35.171Z,98360.50
2023-03-10T16:30:01.595Z,98355.41
2023-03-10T16:32:28.038Z,98369.09
2023-03-10T16:34:54.398Z,98365.50
2023-03-10T16:37:20.764Z,98369.13
2023-03-10T16:39:47.098Z,98364.88
2023-03-10T16:42:13.420Z,98372.81
2023-03-10T16:44:39.746Z,98369.22
2023-03-10T16:47:06.069Z,98366.34
2023-03-10T16:49:32.439Z,98354.09
2023-03-10T16:51:59.658Z,98364.88
2023-03-10T16:54:25.985Z,98363.44
2023-03-10T16:56:52.703Z,98358.41
2023-03-10T16:59:19.770Z,98363.44
2023-03-10T17:01:46.363Z,98356.22
2023-03-10T17:04:12.747Z,98352.59
2023-03-10T17:06:39.150Z,98351.88
2023-03-10T17:09:06.313Z,98353.31
2023-03-10T17:11:33.901Z,98351.16
2023-03-10T17:14:01.247Z,98352.63
2023-03-10T17:16:28.353Z,98353.34
2023-03-10T17:18:55.390Z,98356.22
2023-03-10T17:21:22.650Z,98364.88
2023-03-10T17:23:49.216Z,98382.19
2023-03-10T17:26:15.534Z,98389.38
2023-03-10T17:28:41.984Z,98385.06
2023-03-10T17:31:12.196Z,98376.41
2023-03-10T17:33:38.819Z,98382.88
2023-03-10T17:36:05.851Z,98373.47
2023-03-10T17:38:32.180Z,98377.81
2023-03-10T17:41:00.033Z,98372.03
2023-03-10T17:43:34.471Z,98374.91
2023-03-10T17:46:01.855Z,98367.69
2023-03-10T17:48:28.284Z,98353.28
2023-03-10T17:50:54.629Z,98361.22
2023-03-10T17:53:20.972Z,98357.56
2023-03-10T17:55:47.399Z,98350.34
2023-03-10T17:58:13.734Z,98353.22
2023-03-10T18:00:40.077Z,98342.44
2023-03-10T18:03:06.548Z,98345.31
2023-03-10T18:05:33.132Z,98343.16
2023-03-10T18:07:59.767Z,98353.22
2023-03-10T18:10:26.097Z,98349.63
2023-03-10T18:12:52.426Z,98340.44
2023-03-10T18:15:18.741Z,98350.53
2023-03-10T18:17:45.095Z,98346.22
2023-03-10T18:20:13.105Z,98346.94
2023-03-10T18:22:39.427Z,98346.09
2023-03-10T18:25:05.870Z,98345.72
2023-03-10T18:27:32.299Z,98338.88
2023-03-10T18:29:59.256Z,98332.50
2023-03-10T18:32:27.249Z,98330.38
2023-03-10T18:34:53.876Z,98327.47
2023-03-10T18:37:20.203Z,98328.22
2023-03-10T18:39:46.545Z,98323.19
2023-03-10T18:42:12.867Z,98332.53
2023-03-10T18:44:39.189Z,98335.41
2023-03-10T18:47:05.567Z,98340.44
2023-03-10T18:49:32.773Z,98345.50
2023-03-10T18:51:59.139Z,98351.97
2023-03-10T18:54:25.468Z,98346.94
2023-03-10T18:56:51.794Z,98338.28
2023-03-10T18:59:19.140Z,98330.38
2023-03-10T19:01:45.604Z,98326.03
2023-03-10T19:04:11.958Z,98325.31
2023-03-10T19:06:38.279Z,98300.09
2023-03-10T19:09:08.168Z,98318.13
2023-03-10T19:11:35.497Z,98321.72
2023-03-10T19:14:02.478Z,98314.53
2023-03-10T19:16:28.820Z,98313.09
2023-03-10T19:18:55.218Z,98310.94
2023-03-10T19:21:23.150Z,98309.47
2023-03-10T19:23:49.820Z,98311.66
2023-03-10T19:26:16.153Z,98321.72
2023-03-10T19:28:42.514Z,98312.34
2023-03-10T19:31:12.395Z,98298.69
2023-03-10T19:33:39.785Z,98305.19
2023-03-10T19:36:06.950Z,98306.59
2023-03-10T19:38:33.905Z,98305.88
2023-03-10T19:41:00.995Z,98298.69
2023-03-10T19:43:27.340Z,98290.75
2023-03-10T19:46:03.017Z,98288.63
2023-03-10T19:48:29.352Z,98287.16
2023-03-10T19:50:56.148Z,98287.16
2023-03-10T19:53:22.877Z,98297.25
2023-03-10T19:55:52.822Z,98291.50
2023-03-10T19:58:19.196Z,98292.19
2023-03-10T20:00:46.423Z,98287.16
2023-03-10T20:03:13.075Z,98288.63
2023-03-10T20:05:39.480Z,98290.03
2023-03-10T20:08:05.889Z,98285.72
2023-03-10T20:10:32.211Z,98278.50
2023-03-10T20:12:59.731Z,98281.41
2023-03-10T20:15:26.368Z,98282.13
2023-03-10T20:17:53.237Z,98268.44
2023-03-10T20:20:20.021Z,98264.16
2023-03-10T20:22:46.892Z,98275.66
2023-03-10T20:25:14.175Z,98267.03
2023-03-10T20:27:40.522Z,98264.16
2023-03-10T20:30:07.795Z,98270.63
2023-03-10T20:32:34.358Z,98269.16
2023-03-10T20:35:00.706Z,98269.16
2023-03-10T20:37:27.052Z,98267.03
2023-03-10T20:39:53.393Z,98264.13
2023-03-10T20:42:19.730Z,98260.53
2023-03-10T20:44:46.060Z,98264.13
2023-03-10T20:47:12.383Z,98270.59
2023-03-10T20:49:38.709Z,98274.19
2023-03-10T20:52:05.027Z,98275.66
2023-03-10T20:54:31.378Z,98270.59
2023-03-10T20:56:57.704Z,98256.94
2023-03-10T20:59:24.019Z,98255.47
2023-03-10T21:01:50.347Z,98266.28
2023-03-10T21:04:19.148Z,98251.91
2023-03-10T21:06:45.592Z,98259.81
2023-03-10T21:09:11.924Z,98261.25
2023-03-10T21:11:38.376Z,98263.41
2023-03-10T21:14:04.719Z,98252.63
2023-03-10T21:16:31.176Z,98251.91
2023-03-10T21:18:57.553Z,98256.22
2023-03-10T21:21:23.870Z,98261.97
2023-03-10T21:23:50.190Z,98251.16
2023-03-10T21:26:17.453Z,98239.66
2023-03-10T21:28:43.775Z,98232.47
2023-03-10T21:31:10.421Z,98231.00
2023-03-10T21:33:36.842Z,98239.66
2023-03-10T21:36:03.194Z,98246.84
2023-03-10T21:38:29.567Z,98247.56
2023-03-10T21:40:55.970Z,98251.16
2023-03-10T21:43:22.276Z,98261.25
2023-03-10T21:45:48.684Z,98256.19
2023-03-10T21:48:15.041Z,98256.94
2023-03-10T21:50:41.431Z,98254.06
2023-03-10T21:53:07.782Z,98246.13
2023-03-10T21:55:36.216Z,98255.47
2023-03-10T21:58:03.332Z,98242.53
2023-03-10T22:00:29.976Z,98239.66
2023-03-10T22:02:56.364Z,98231.69
2023-03-10T22:05:23.002Z,98226.69
2023-03-10T22:07:49.636Z,98220.91
2023-03-10T22:10:16.059Z,98226.69
2023-03-10T22:12:42.409Z,98224.50
2023-03-10T22:15:09.288Z,98223.09
2023-03-10T22:17:35.675Z,98228.84
2023-03-10T22:20:02.060Z,98228.84
2023-03-10T22:22:28.412Z,98243.22
2023-03-10T22:24:54.765Z,98233.88
2023-03-10T22:27:21.076Z,98232.41
2023-03-10T22:29:47.409Z,98233.88
2023-03-10T22:32:13.783Z,98238.16
2023-03-10T22:34:40.174Z,98235.28
2023-03-10T22:37:06.532Z,98238.16
2023-03-10T22:39:32.872Z,98230.97
2023-03-10T22:41:59.207Z,98236.03
2023-03-10T22:44:25.578Z,98238.19
2023-03-10T22:46:52.363Z,98241.06
2023-03-10T22:49:18.916Z,98235.31
2023-03-10T22:51:45.244Z,98239.59
2023-03-10T22:54:11.582Z,98243.94
2023-03-10T22:56:37.897Z,98248.94
2023-03-10T22:59:05.817Z,98252.56
2023-03-10T23:01:32.260Z,98251.09
2023-03-10T23:03:59.175Z,98264.78
2023-03-10T23:06:28.963Z,98256.16
2023-03-10T23:08:58.064Z,98262.63
2023-03-10T23:11:24.388Z,98266.94
2023-03-10T23:13:50.866Z,98271.25
2023-03-10T23:16:18.979Z,98277.75
2023-03-10T23:18:45.454Z,98279.88
2023-03-10T23:21:11.803Z,98280.59
2023-03-10T23:23:39.245Z,98289.94
2023-03-10T23:26:05.708Z,98290.66
2023-03-10T23:28:32.023Z,98300.03
2023-03-10T23:30:59.719Z,98308.66
2023-03-10T23:33:26.041Z,98320.88
2023-03-10T23:35:55.229Z,98324.50
2023-03-10T23:38:22.169Z,98336.00
2023-03-10T23:40:48.678Z,98347.53
2023-03-10T23:43:15.000Z,98355.44
2023-03-10T23:45:41.351Z,98362.63
2023-03-10T23:48:08.707Z,98372.69
2023-03-10T23:50:36.171Z,98382.06
2023-03-10T23:53:02.800Z,98395.00
2023-03-10T23:55:33.047Z,98415.84
2023-03-10T23:57:59.367Z,98420.19
